createdAt,value
2019-05-30T00:00:44.583Z,3.83
2019-05-30T00:03:13.435Z,3.65
2019-05-30T00:05:42.284Z,3.47
2019-05-30T00:08:11.131Z,3.80
2019-05-30T00:10:39.978Z,3.70
2019-05-30T00:13:08.835Z,3.95
2019-05-30T00:15:37.678Z,3.40
2019-05-30T00:18:06.838Z,3.45
2019-05-30T00:20:35.911Z,3.37
2019-05-30T00:23:04.763Z,3.30
2019-05-30T00:25:33.697Z,3.75
2019-05-30T00:28:05.137Z,3.40
2019-05-30T00:30:33.735Z,3.87
2019-05-30T00:33:03.532Z,3.70
2019-05-30T00:35:33.151Z,3.55
2019-05-30T00:38:02.067Z,3.67
2019-05-30T00:40:31.261Z,3.50
2019-05-30T00:43:00.137Z,3.27
2019-05-30T00:45:29.027Z,3.42
2019-05-30T00:47:58.116Z,3.70
2019-05-30T00:50:27.114Z,3.60
2019-05-30T00:52:56.467Z,3.90
2019-05-30T00:55:25.499Z,3.45
2019-05-30T00:57:54.340Z,3.72
2019-05-30T01:00:41.618Z,3.33
2019-05-30T01:02:53.819Z,3.52
2019-05-30T01:05:22.655Z,4.10
2019-05-30T01:07:51.514Z,3.95
2019-05-30T01:10:20.435Z,3.87
2019-05-30T01:12:49.287Z,4.25
2019-05-30T01:15:18.511Z,3.83
2019-05-30T01:17:47.367Z,3.95
2019-05-30T01:20:17.389Z,4.20
2019-05-30T01:22:46.247Z,4.12
2019-05-30T01:25:15.160Z,4.10
2019-05-30T01:27:44.012Z,3.98
2019-05-30T01:30:13.026Z,4.03
2019-05-30T01:32:41.892Z,4.33
2019-05-30T01:35:10.952Z,4.17
2019-05-30T01:37:40.100Z,4.20
2019-05-30T01:40:09.227Z,4.47
2019-05-30T01:42:38.081Z,4.70
2019-05-30T01:45:10.372Z,5.12
2019-05-30T01:47:39.212Z,4.72
2019-05-30T01:50:08.760Z,5.50
2019-05-30T01:52:38.053Z,5.75
2019-05-30T01:55:09.042Z,5.58
2019-05-30T01:57:38.540Z,5.45
2019-05-30T02:00:19.906Z,5.35
2019-05-30T02:02:40.758Z,6.17
2019-05-30T02:05:09.886Z,6.10
2019-05-30T02:07:38.802Z,6.40
2019-05-30T02:10:07.714Z,5.70
2019-05-30T02:12:36.568Z,6.78
2019-05-30T02:15:05.888Z,6.92
2019-05-30T02:17:34.747Z,6.37
2019-05-30T02:20:05.806Z,7.12
2019-05-30T02:22:34.803Z,7.05
2019-05-30T02:25:06.104Z,7.12
2019-05-30T02:27:34.972Z,7.00
2019-05-30T02:30:09.325Z,7.25
2019-05-30T02:32:37.052Z,7.50
2019-05-30T02:35:07.876Z,7.00
2019-05-30T02:37:36.749Z,7.55
2019-05-30T02:40:09.817Z,6.95
2019-05-30T02:42:37.059Z,7.35
2019-05-30T02:45:07.993Z,7.37
2019-05-30T02:47:37.124Z,7.45
2019-05-30T02:50:08.413Z,7.70
2019-05-30T02:52:37.104Z,8.15
2019-05-30T02:55:08.443Z,7.87
2019-05-30T02:57:36.872Z,8.08
2019-05-30T03:00:08.251Z,7.78
2019-05-30T03:02:38.509Z,8.25
2019-05-30T03:05:10.953Z,8.45
2019-05-30T03:07:38.085Z,8.48
2019-05-30T03:10:09.392Z,9.05
2019-05-30T03:12:37.933Z,8.48
2019-05-30T03:15:09.320Z,8.15
2019-05-30T03:17:37.703Z,8.23
2019-05-30T03:20:14.805Z,8.05
2019-05-30T03:22:37.477Z,8.83
2019-05-30T03:25:09.469Z,8.28
2019-05-30T03:27:36.952Z,9.05
2019-05-30T03:30:20.421Z,8.58
2019-05-30T03:35:22.209Z,8.00
2019-05-30T03:37:40.958Z,8.00
2019-05-30T03:40:09.886Z,8.65
2019-05-30T03:42:38.812Z,8.08
2019-05-30T03:45:10.715Z,8.60
2019-05-30T03:47:40.062Z,8.33
2019-05-30T03:50:12.576Z,8.35
2019-05-30T03:52:41.936Z,8.30
2019-05-30T03:55:12.479Z,7.55
2019-05-30T03:57:42.940Z,7.85
2019-05-30T04:00:25.435Z,7.37
2019-05-30T04:02:58.779Z,7.45
2019-05-30T04:05:30.805Z,7.12
2019-05-30T04:08:01.427Z,7.23
2019-05-30T04:10:31.821Z,7.40
2019-05-30T04:13:02.355Z,6.70
2019-05-30T04:15:32.292Z,6.35
2019-05-30T04:18:01.144Z,6.58
2019-05-30T04:20:30.155Z,5.97
2019-05-30T04:22:59.159Z,6.00
2019-05-30T04:25:28.484Z,5.87
2019-05-30T04:27:57.339Z,5.83
2019-05-30T04:30:26.185Z,5.05
2019-05-30T04:33:13.349Z,5.60
2019-05-30T04:35:25.819Z,5.55
2019-05-30T04:37:54.668Z,5.45
2019-05-30T04:40:24.596Z,5.10
2019-05-30T04:42:53.488Z,4.50
2019-05-30T04:45:27.392Z,5.42
2019-05-30T04:47:52.912Z,4.67
2019-05-30T04:50:22.507Z,5.08
2019-05-30T04:52:51.361Z,4.72
2019-05-30T04:55:22.438Z,4.47
2019-05-30T04:57:50.774Z,4.65
2019-05-30T05:00:21.289Z,4.10
2019-05-30T05:02:50.330Z,5.30
2019-05-30T05:05:24.726Z,4.95
2019-05-30T05:07:49.721Z,5.47
2019-05-30T05:10:20.219Z,4.95
2019-05-30T05:12:49.123Z,4.70
2019-05-30T05:15:18.659Z,5.12
2019-05-30T05:17:47.707Z,4.97
2019-05-30T05:20:19.254Z,6.87
2019-05-30T05:22:48.385Z,7.03
2019-05-30T05:25:17.491Z,7.50
2019-05-30T05:27:46.367Z,6.80
2019-05-30T05:30:15.996Z,7.50
2019-05-30T05:32:46.220Z,6.70
2019-05-30T05:35:15.140Z,7.50
2019-05-30T05:37:43.989Z,8.03
2019-05-30T05:40:13.104Z,8.08
2019-05-30T05:42:41.973Z,7.35
2019-05-30T05:45:11.875Z,7.33
2019-05-30T05:47:40.744Z,6.87
2019-05-30T05:50:09.588Z,7.17
2019-05-30T05:52:39.180Z,7.12
2019-05-30T05:55:08.212Z,7.17
2019-05-30T05:57:37.063Z,6.95
2019-05-30T06:00:06.679Z,7.33
2019-05-30T06:02:35.536Z,7.55
2019-05-30T06:05:05.919Z,7.90
2019-05-30T06:07:34.805Z,7.25
2019-05-30T06:10:04.903Z,7.03
2019-05-30T06:12:33.763Z,6.95
2019-05-30T06:15:02.987Z,6.17
2019-05-30T06:17:31.908Z,6.35
2019-05-30T06:20:00.753Z,6.47
2019-05-30T06:22:29.619Z,5.75
2019-05-30T06:24:58.479Z,6.53
2019-05-30T06:27:28.071Z,5.70
2019-05-30T06:29:57.058Z,6.37
2019-05-30T06:32:26.756Z,5.92
2019-05-30T06:34:55.735Z,6.30
2019-05-30T06:37:25.190Z,6.15
2019-05-30T06:39:55.279Z,6.30
2019-05-30T06:42:24.134Z,6.40
2019-05-30T06:44:52.986Z,6.20
2019-05-30T06:47:22.181Z,6.12
2019-05-30T06:49:51.175Z,5.15
2019-05-30T06:52:20.890Z,5.22
2019-05-30T06:54:50.141Z,5.55
2019-05-30T06:57:18.999Z,5.35
2019-05-30T06:59:47.852Z,5.70
2019-05-30T07:02:16.733Z,6.03
2019-05-30T07:04:51.465Z,5.85
2019-05-30T07:07:16.518Z,5.17
2019-05-30T07:09:45.785Z,4.92
2019-05-30T07:12:14.725Z,5.87
2019-05-30T07:14:43.559Z,5.40
2019-05-30T07:17:12.455Z,5.60
2019-05-30T07:19:41.299Z,5.42
2019-05-30T07:22:10.951Z,4.92
2019-05-30T07:24:39.807Z,5.22
2019-05-30T07:27:08.675Z,5.90
2019-05-30T07:29:37.519Z,5.42
2019-05-30T07:32:06.396Z,5.20
2019-05-30T07:34:35.279Z,5.78
2019-05-30T07:37:04.144Z,6.37
2019-05-30T07:39:35.052Z,5.60
2019-05-30T07:42:06.662Z,5.87
2019-05-30T07:44:34.997Z,6.25
2019-05-30T07:47:04.148Z,5.67
2019-05-30T07:49:33.044Z,6.47
2019-05-30T07:52:02.268Z,6.15
2019-05-30T07:54:31.257Z,6.62
2019-05-30T07:57:00.704Z,6.60
2019-05-30T07:59:30.317Z,6.62
2019-05-30T08:01:59.313Z,6.75
2019-05-30T08:04:29.392Z,6.70
2019-05-30T08:06:58.573Z,6.25
2019-05-30T08:09:28.984Z,6.83
2019-05-30T08:11:58.541Z,6.45
2019-05-30T08:14:27.381Z,6.20
2019-05-30T08:16:57.304Z,6.53
2019-05-30T08:19:27.665Z,6.45
2019-05-30T08:21:56.620Z,6.62
2019-05-30T08:24:25.516Z,5.87
2019-05-30T08:26:54.368Z,5.97
2019-05-30T08:29:23.220Z,6.05
2019-05-30T08:31:52.160Z,5.60
2019-05-30T08:34:21.004Z,6.00
2019-05-30T08:36:49.863Z,7.40
2019-05-30T08:39:18.720Z,5.65
2019-05-30T08:41:47.587Z,6.50
2019-05-30T08:44:17.405Z,7.45
2019-05-30T08:46:46.263Z,7.05
2019-05-30T08:49:15.115Z,6.62
2019-05-30T08:51:43.967Z,6.15
2019-05-30T08:54:13.966Z,6.70
2019-05-30T08:56:43.159Z,7.20
2019-05-30T08:59:12.363Z,6.97
2019-05-30T09:01:42.145Z,6.40
2019-05-30T09:04:11.519Z,6.70
2019-05-30T09:06:40.390Z,6.35
2019-05-30T09:09:10.316Z,5.90
2019-05-30T09:11:40.489Z,6.30
2019-05-30T09:14:09.611Z,6.53
2019-05-30T09:16:39.755Z,6.65
2019-05-30T09:19:08.619Z,6.17
2019-05-30T09:21:38.679Z,6.47
2019-05-30T09:24:08.051Z,6.08
2019-05-30T09:26:38.473Z,6.42
2019-05-30T09:29:07.504Z,6.05
2019-05-30T09:31:36.363Z,6.15
2019-05-30T09:34:05.224Z,5.75
2019-05-30T09:36:34.071Z,5.80
2019-05-30T09:39:03.422Z,4.20
2019-05-30T09:41:32.331Z,4.72
2019-05-30T09:44:01.195Z,4.33
2019-05-30T09:46:30.036Z,4.62
2019-05-30T09:48:58.892Z,4.70
2019-05-30T09:51:27.749Z,3.95
2019-05-30T09:53:56.607Z,5.08
2019-05-30T09:56:25.519Z,4.83
2019-05-30T09:58:54.376Z,4.78
2019-05-30T10:01:23.228Z,4.22
2019-05-30T10:03:52.421Z,4.65
2019-05-30T10:06:29.592Z,4.50
2019-05-30T10:08:53.088Z,4.00
2019-05-30T10:11:22.027Z,3.90
2019-05-30T10:13:51.260Z,3.55
2019-05-30T10:16:21.423Z,3.52
2019-05-30T10:18:50.773Z,4.17
2019-05-30T10:21:19.695Z,4.62
2019-05-30T10:23:49.446Z,4.10
2019-05-30T10:26:18.488Z,3.80
2019-05-30T10:28:47.765Z,3.65
2019-05-30T10:31:17.152Z,2.80
2019-05-30T10:33:54.851Z,2.90
2019-05-30T10:36:23.727Z,3.65
2019-05-30T10:38:53.954Z,2.92
2019-05-30T10:41:22.852Z,2.90
2019-05-30T10:43:51.691Z,3.17
2019-05-30T10:46:20.566Z,2.80
2019-05-30T10:48:50.757Z,2.70
2019-05-30T10:51:19.845Z,2.77
2019-05-30T10:53:50.340Z,2.40
2019-05-30T10:56:19.240Z,2.42
2019-05-30T10:58:48.340Z,2.20
2019-05-30T11:01:17.230Z,2.62
2019-05-30T11:03:47.194Z,2.20
2019-05-30T11:06:18.429Z,2.27
2019-05-30T11:08:49.147Z,2.30
2019-05-30T11:11:18.134Z,2.33
2019-05-30T11:13:47.007Z,2.15
2019-05-30T11:16:15.851Z,2.10
2019-05-30T11:18:44.707Z,2.40
2019-05-30T11:21:13.556Z,2.30
2019-05-30T11:23:42.423Z,2.15
2019-05-30T11:26:11.513Z,2.70
2019-05-30T11:28:40.356Z,1.87
2019-05-30T11:31:09.213Z,2.60
2019-05-30T11:33:38.056Z,2.40
2019-05-30T11:36:06.920Z,2.02
2019-05-30T11:38:35.773Z,2.77
2019-05-30T11:41:04.698Z,2.22
2019-05-30T11:43:33.555Z,2.70
2019-05-30T11:46:02.439Z,2.30
2019-05-30T11:48:31.296Z,2.42
2019-05-30T11:51:00.232Z,2.00
2019-05-30T11:53:29.096Z,2.15
2019-05-30T11:55:58.294Z,2.30
2019-05-30T11:58:27.376Z,2.10
2019-05-30T12:00:56.409Z,2.10
2019-05-30T12:03:28.664Z,1.87
2019-05-30T12:05:56.590Z,2.00
2019-05-30T12:08:25.699Z,1.52
2019-05-30T12:10:54.972Z,1.70
2019-05-30T12:13:24.226Z,1.55
2019-05-30T12:15:53.436Z,1.67
2019-05-30T12:18:22.306Z,1.40
2019-05-30T12:20:51.682Z,1.17
2019-05-30T12:23:20.627Z,1.40
2019-05-30T12:25:49.484Z,1.22
2019-05-30T12:28:19.403Z,1.35
2019-05-30T12:30:56.876Z,1.57
2019-05-30T12:33:18.801Z,1.20
2019-05-30T12:35:47.651Z,1.50
2019-05-30T12:38:16.735Z,1.27
2019-05-30T12:40:45.587Z,1.20
2019-05-30T12:43:14.455Z,1.60
2019-05-30T12:45:43.311Z,1.37
2019-05-30T12:48:12.407Z,1.10
2019-05-30T12:50:41.271Z,1.40
2019-05-30T12:53:10.126Z,1.45
2019-05-30T12:55:39.215Z,1.42
2019-05-30T12:58:08.389Z,1.52
2019-05-30T13:00:37.554Z,1.32
2019-05-30T13:03:07.281Z,1.37
2019-05-30T13:05:36.360Z,1.50
2019-05-30T13:08:17.545Z,1.50
2019-05-30T13:10:35.760Z,1.35
2019-05-30T13:13:06.070Z,1.20
2019-05-30T13:15:35.041Z,1.40
2019-05-30T13:18:03.971Z,1.75
2019-05-30T13:20:32.891Z,1.55
2019-05-30T13:23:02.708Z,1.60
2019-05-30T13:25:32.777Z,1.45
2019-05-30T13:28:05.051Z,1.60
2019-05-30T13:30:32.601Z,1.60
2019-05-30T13:33:02.914Z,1.57
2019-05-30T13:35:32.000Z,1.50
2019-05-30T13:38:01.293Z,1.77
2019-05-30T13:40:30.379Z,1.60
2019-05-30T13:42:59.778Z,1.52
2019-05-30T13:45:28.811Z,1.90
2019-05-30T13:47:58.311Z,1.80
2019-05-30T13:50:27.267Z,1.77
2019-05-30T13:52:56.122Z,1.62
2019-05-30T13:55:28.091Z,1.70
2019-05-30T13:57:55.595Z,1.90
2019-05-30T14:00:24.763Z,1.77
2019-05-30T14:02:53.606Z,1.92
2019-05-30T14:05:22.457Z,1.77
2019-05-30T14:07:51.310Z,1.90
2019-05-30T14:10:21.504Z,1.62
2019-05-30T14:12:50.361Z,1.70
2019-05-30T14:15:19.276Z,1.70
2019-05-30T14:17:48.455Z,1.85
2019-05-30T14:20:17.667Z,1.60
2019-05-30T14:22:46.521Z,1.80
2019-05-30T14:25:15.747Z,1.70
2019-05-30T14:27:44.823Z,1.52
2019-05-30T14:30:13.776Z,1.67
2019-05-30T14:32:42.623Z,1.80
2019-05-30T14:35:13.672Z,1.92
2019-05-30T14:37:42.158Z,1.85
2019-05-30T14:40:12.899Z,1.87
2019-05-30T14:42:42.024Z,1.60
2019-05-30T14:45:12.520Z,1.90
2019-05-30T14:47:41.836Z,1.50
2019-05-30T14:50:11.322Z,1.87
2019-05-30T14:52:40.274Z,1.70
2019-05-30T14:55:09.237Z,1.70
2019-05-30T14:57:38.193Z,1.82
2019-05-30T15:00:07.568Z,1.52
2019-05-30T15:02:36.533Z,2.12
2019-05-30T15:05:05.494Z,1.77
2019-05-30T15:07:35.447Z,2.30
2019-05-30T15:10:08.665Z,1.80
2019-05-30T15:12:37.756Z,2.00
2019-05-30T15:15:07.992Z,2.20
2019-05-30T15:17:37.907Z,1.90
2019-05-30T15:20:07.510Z,2.10
2019-05-30T15:22:36.807Z,1.85
2019-05-30T15:25:06.131Z,1.82
2019-05-30T15:27:35.876Z,2.00
2019-05-30T15:30:06.416Z,1.80
2019-05-30T15:32:35.291Z,1.90
2019-05-30T15:35:04.534Z,1.82
2019-05-30T15:37:33.640Z,1.98
2019-05-30T15:40:03.456Z,1.80
2019-05-30T15:42:32.307Z,2.02
2019-05-30T15:45:01.162Z,2.17
2019-05-30T15:47:30.015Z,2.02
2019-05-30T15:49:58.863Z,2.00
2019-05-30T15:52:27.719Z,2.50
2019-05-30T15:54:56.569Z,3.80
2019-05-30T15:57:25.494Z,3.72
2019-05-30T15:59:54.348Z,2.27
2019-05-30T16:02:23.207Z,2.08
2019-05-30T16:04:52.058Z,2.10
2019-05-30T16:07:20.925Z,1.98
2019-05-30T16:09:49.759Z,2.20
2019-05-30T16:12:19.386Z,1.90
2019-05-30T16:14:48.365Z,1.67
2019-05-30T16:17:17.795Z,2.90
2019-05-30T16:19:46.991Z,4.55
2019-05-30T16:22:16.273Z,6.22
2019-05-30T16:24:45.499Z,2.80
2019-05-30T16:27:15.651Z,3.00
2019-05-30T16:29:44.699Z,2.62
2019-05-30T16:32:13.824Z,4.90
2019-05-30T16:34:42.853Z,2.30
2019-05-30T16:37:11.711Z,2.60
2019-05-30T16:39:40.573Z,2.25
2019-05-30T16:42:09.407Z,1.50
2019-05-30T16:44:38.264Z,1.40
2019-05-30T16:47:07.121Z,1.55
2019-05-30T16:49:36.947Z,1.40
2019-05-30T16:52:06.041Z,1.45
2019-05-30T16:54:35.199Z,1.35
2019-05-30T16:57:04.056Z,1.40
2019-05-30T16:59:33.075Z,1.20
2019-05-30T17:02:02.184Z,1.40
2019-05-30T17:04:31.028Z,1.40
2019-05-30T17:07:00.111Z,1.50
2019-05-30T17:09:28.959Z,1.30
2019-05-30T17:11:57.824Z,1.27
2019-05-30T17:14:26.899Z,1.35
2019-05-30T17:16:56.163Z,1.52
2019-05-30T17:19:25.015Z,1.50
2019-05-30T17:21:53.860Z,1.40
2019-05-30T17:24:23.012Z,1.50
2019-05-30T17:26:52.213Z,1.35
2019-05-30T17:29:21.543Z,1.30
2019-05-30T17:31:50.472Z,1.50
2019-05-30T17:34:20.315Z,1.20
2019-05-30T17:36:49.160Z,1.67
2019-05-30T17:39:18.901Z,1.35
2019-05-30T17:41:47.923Z,1.50
2019-05-30T17:44:17.007Z,1.80
2019-05-30T17:46:45.888Z,1.27
2019-05-30T17:49:14.735Z,1.40
2019-05-30T17:51:43.591Z,1.60
2019-05-30T17:54:12.478Z,1.52
2019-05-30T17:56:41.320Z,1.52
2019-05-30T17:59:10.191Z,1.30
2019-05-30T18:01:39.042Z,1.50
2019-05-30T18:04:07.887Z,1.42
2019-05-30T18:06:36.971Z,1.45
2019-05-30T18:09:06.492Z,1.52
2019-05-30T18:11:35.556Z,1.40
2019-05-30T18:14:04.409Z,1.45
2019-05-30T18:16:33.269Z,1.35
2019-05-30T18:19:02.131Z,1.20
2019-05-30T18:21:31.844Z,1.50
2019-05-30T18:24:00.759Z,1.40
2019-05-30T18:26:29.768Z,1.60
2019-05-30T18:28:58.871Z,1.40
2019-05-30T18:31:28.043Z,1.50
2019-05-30T18:33:56.947Z,1.50
2019-05-30T18:36:26.310Z,1.40
2019-05-30T18:38:55.231Z,1.50
2019-05-30T18:41:24.588Z,1.37
2019-05-30T18:43:53.554Z,1.45
2019-05-30T18:46:23.047Z,1.60
2019-05-30T18:48:52.063Z,1.40
2019-05-30T18:51:20.919Z,1.57
2019-05-30T18:53:50.005Z,1.50
2019-05-30T18:56:19.104Z,1.50
2019-05-30T18:58:47.972Z,1.42
2019-05-30T19:01:16.823Z,1.40
2019-05-30T19:03:45.912Z,1.67
2019-05-30T19:06:14.783Z,1.60
2019-05-30T19:08:43.851Z,1.60
2019-05-30T19:11:26.661Z,1.60
2019-05-30T19:13:43.328Z,1.50
2019-05-30T19:16:12.199Z,1.50
2019-05-30T19:18:41.047Z,1.50
2019-05-30T19:21:09.907Z,1.70
2019-05-30T19:23:39.826Z,1.60
2019-05-30T19:26:08.800Z,1.62
2019-05-30T19:28:37.651Z,1.90
2019-05-30T19:31:06.517Z,1.87
2019-05-30T19:33:35.372Z,2.00
2019-05-30T19:36:04.303Z,2.02
2019-05-30T19:38:33.366Z,1.92
2019-05-30T19:41:02.275Z,1.95
2019-05-30T19:43:31.738Z,2.15
2019-05-30T19:46:00.879Z,1.90
2019-05-30T19:48:30.258Z,1.90
2019-05-30T19:51:00.251Z,1.80
2019-05-30T19:53:29.108Z,1.82
2019-05-30T19:55:57.960Z,2.08
2019-05-30T19:58:26.808Z,2.12
2019-05-30T20:00:58.946Z,2.02
2019-05-30T20:03:36.417Z,1.87
2019-05-30T20:05:56.767Z,1.90
2019-05-30T20:08:25.659Z,2.17
2019-05-30T20:10:54.585Z,2.20
2019-05-30T20:13:23.428Z,2.08
2019-05-30T20:15:52.548Z,2.08
2019-05-30T20:18:21.399Z,2.10
2019-05-30T20:20:57.269Z,2.22
2019-05-30T20:23:21.028Z,2.15
2019-05-30T20:25:49.875Z,2.02
2019-05-30T20:28:18.728Z,1.90
2019-05-30T20:30:47.587Z,1.95
2019-05-30T20:33:16.431Z,1.90
2019-05-30T20:35:45.298Z,2.50
2019-05-30T20:38:14.371Z,2.30
2019-05-30T20:40:43.231Z,2.50
2019-05-30T20:43:12.120Z,2.40
2019-05-30T20:45:46.992Z,2.55
2019-05-30T20:48:11.545Z,2.30
2019-05-30T20:50:41.186Z,2.10
2019-05-30T20:53:10.449Z,2.22
2019-05-30T20:55:40.353Z,2.12
2019-05-30T20:58:09.334Z,2.40
2019-05-30T21:00:40.094Z,2.83
2019-05-30T21:03:09.544Z,2.90
2019-05-30T21:05:39.841Z,2.98
2019-05-30T21:08:08.955Z,3.22
2019-05-30T21:10:39.127Z,3.00
2019-05-30T21:13:08.486Z,3.30
2019-05-30T21:15:37.737Z,3.00
2019-05-30T21:18:06.869Z,2.62
2019-05-30T21:20:35.931Z,2.40
2019-05-30T21:23:04.975Z,2.27
2019-05-30T21:25:35.833Z,2.40
2019-05-30T21:28:04.454Z,3.35
2019-05-30T21:30:33.307Z,3.50
2019-05-30T21:33:02.225Z,3.45
2019-05-30T21:35:31.139Z,4.20
2019-05-30T21:38:00.032Z,3.72
2019-05-30T21:40:28.880Z,3.72
2019-05-30T21:43:06.035Z,3.20
2019-05-30T21:45:28.305Z,3.27
2019-05-30T21:47:57.485Z,2.92
2019-05-30T21:50:26.331Z,2.83
2019-05-30T21:52:55.303Z,2.50
2019-05-30T21:55:24.404Z,2.67
2019-05-30T21:57:53.255Z,2.40
2019-05-30T22:00:40.210Z,2.50
2019-05-30T22:03:09.174Z,2.85
2019-05-30T22:05:38.027Z,2.42
2019-05-30T22:08:06.883Z,2.08
2019-05-30T22:10:36.967Z,2.42
2019-05-30T22:13:09.623Z,2.20
2019-05-30T22:15:37.608Z,2.35
2019-05-30T22:18:07.036Z,2.47
2019-05-30T22:20:35.891Z,2.47
2019-05-30T22:23:04.755Z,2.40
2019-05-30T22:25:33.600Z,2.67
2019-05-30T22:28:02.459Z,2.27
2019-05-30T22:30:31.306Z,2.37
2019-05-30T22:33:00.165Z,2.50
2019-05-30T22:35:29.029Z,2.65
2019-05-30T22:37:57.867Z,2.42
2019-05-30T22:40:26.726Z,2.40
2019-05-30T22:42:56.438Z,2.30
2019-05-30T22:45:25.389Z,2.60
2019-05-30T22:47:54.475Z,2.65
2019-05-30T22:50:23.323Z,2.80
2019-05-30T22:52:53.038Z,2.35
2019-05-30T22:55:22.010Z,2.70
2019-05-30T22:57:50.863Z,2.70
2019-05-30T23:00:19.786Z,2.60
2019-05-30T23:02:49.842Z,2.60
2019-05-30T23:05:18.877Z,3.02
2019-05-30T23:07:47.730Z,3.25
2019-05-30T23:10:16.727Z,3.17
2019-05-30T23:12:45.861Z,3.37
2019-05-30T23:15:14.811Z,3.22
2019-05-30T23:17:43.667Z,3.20
2019-05-30T23:20:13.064Z,3.42
2019-05-30T23:22:42.163Z,3.05
2019-05-30T23:25:11.191Z,3.10
2019-05-30T23:27:40.045Z,3.30
2019-05-30T23:30:08.963Z,3.20
2019-05-30T23:32:37.823Z,3.10
2019-05-30T23:35:06.735Z,3.35
2019-05-30T23:37:35.828Z,3.72
2019-05-30T23:40:05.085Z,3.65
2019-05-30T23:42:33.919Z,3.67
2019-05-30T23:45:03.248Z,3.30
2019-05-30T23:47:32.183Z,3.30
2019-05-30T23:50:01.127Z,3.40
2019-05-30T23:52:29.974Z,3.00
2019-05-30T23:55:01.953Z,2.90
2019-05-30T23:57:29.670Z,3.00
2019-05-30T23:59:58.859Z,2.45
